sensor_id;sensor_type;location;lat;lon;timestamp;temperature;humidity
1155;DHT22;566;48.414;9.118;2023-06-26T00:00:19;20.50;72.40
1155;DHT22;566;48.414;9.118;2023-06-26T00:02:45;20.50;71.80
1155;DHT22;566;48.414;9.118;2023-06-26T00:05:11;20.50;72.60
1155;DHT22;566;48.414;9.118;2023-06-26T00:07:37;20.40;72.90
1155;DHT22;566;48.414;9.118;2023-06-26T00:10:03;20.20;74.40
1155;DHT22;566;48.414;9.118;2023-06-26T00:12:29;20.00;74.80
1155;DHT22;566;48.414;9.118;2023-06-26T00:14:55;19.90;74.40
1155;DHT22;566;48.414;9.118;2023-06-26T00:17:21;19.80;74.80
1155;DHT22;566;48.414;9.118;2023-06-26T00:19:47;19.80;75.60
1155;DHT22;566;48.414;9.118;2023-06-26T00:22:12;19.70;75.60
1155;DHT22;566;48.414;9.118;2023-06-26T00:24:38;19.60;75.50
1155;DHT22;566;48.414;9.118;2023-06-26T00:27:03;19.60;76.40
1155;DHT22;566;48.414;9.118;2023-06-26T00:29:29;19.40;76.60
1155;DHT22;566;48.414;9.118;2023-06-26T00:31:55;19.40;76.00
1155;DHT22;566;48.414;9.118;2023-06-26T00:34:20;19.40;76.40
1155;DHT22;566;48.414;9.118;2023-06-26T00:36:46;19.40;76.80
1155;DHT22;566;48.414;9.118;2023-06-26T00:39:11;19.30;77.00
1155;DHT22;566;48.414;9.118;2023-06-26T00:41:37;19.30;77.30
1155;DHT22;566;48.414;9.118;2023-06-26T00:44:06;19.20;77.80
1155;DHT22;566;48.414;9.118;2023-06-26T00:46:32;19.10;78.10
1155;DHT22;566;48.414;9.118;2023-06-26T00:48:59;19.10;78.40
1155;DHT22;566;48.414;9.118;2023-06-26T00:51:29;19.00;78.30
1155;DHT22;566;48.414;9.118;2023-06-26T00:53:56;18.90;78.90
1155;DHT22;566;48.414;9.118;2023-06-26T00:56:22;18.90;78.70
1155;DHT22;566;48.414;9.118;2023-06-26T00:58:47;18.90;78.60
1155;DHT22;566;48.414;9.118;2023-06-26T01:01:14;18.80;79.60
1155;DHT22;566;48.414;9.118;2023-06-26T01:03:45;18.80;79.20
1155;DHT22;566;48.414;9.118;2023-06-26T01:06:13;18.80;79.60
1155;DHT22;566;48.414;9.118;2023-06-26T01:08:40;18.70;79.40
1155;DHT22;566;48.414;9.118;2023-06-26T01:11:06;18.70;79.40
1155;DHT22;566;48.414;9.118;2023-06-26T01:13:33;18.80;79.00
1155;DHT22;566;48.414;9.118;2023-06-26T01:15:59;18.80;79.60
1155;DHT22;566;48.414;9.118;2023-06-26T01:18:26;18.80;79.80
1155;DHT22;566;48.414;9.118;2023-06-26T01:20:52;18.70;79.10
1155;DHT22;566;48.414;9.118;2023-06-26T01:23:31;18.70;78.90
1155;DHT22;566;48.414;9.118;2023-06-26T01:28:39;18.70;80.30
1155;DHT22;566;48.414;9.118;2023-06-26T01:31:06;18.60;80.10
1155;DHT22;566;48.414;9.118;2023-06-26T01:33:32;18.50;80.80
1155;DHT22;566;48.414;9.118;2023-06-26T01:35:58;18.40;80.80
1155;DHT22;566;48.414;9.118;2023-06-26T01:38:23;18.50;79.90
1155;DHT22;566;48.414;9.118;2023-06-26T01:40:50;18.50;79.70
1155;DHT22;566;48.414;9.118;2023-06-26T01:45:55;18.60;79.90
1155;DHT22;566;48.414;9.118;2023-06-26T01:48:27;18.60;79.30
1155;DHT22;566;48.414;9.118;2023-06-26T01:50:56;18.60;79.60
1155;DHT22;566;48.414;9.118;2023-06-26T01:53:36;18.60;80.20
1155;DHT22;566;48.414;9.118;2023-06-26T01:56:13;18.60;79.60
1155;DHT22;566;48.414;9.118;2023-06-26T01:58:44;18.60;79.90
1155;DHT22;566;48.414;9.118;2023-06-26T02:01:11;18.50;80.40
1155;DHT22;566;48.414;9.118;2023-06-26T02:03:40;18.50;80.40
1155;DHT22;566;48.414;9.118;2023-06-26T02:06:05;18.50;79.80
1155;DHT22;566;48.414;9.118;2023-06-26T02:08:31;18.60;80.20
1155;DHT22;566;48.414;9.118;2023-06-26T02:10:56;18.50;80.20
1155;DHT22;566;48.414;9.118;2023-06-26T02:13:22;18.50;80.40
1155;DHT22;566;48.414;9.118;2023-06-26T02:15:48;18.40;81.00
1155;DHT22;566;48.414;9.118;2023-06-26T02:18:13;18.30;81.40
1155;DHT22;566;48.414;9.118;2023-06-26T02:20:39;18.30;81.80
1155;DHT22;566;48.414;9.118;2023-06-26T02:23:05;18.20;82.10
1155;DHT22;566;48.414;9.118;2023-06-26T02:25:30;18.20;82.30
1155;DHT22;566;48.414;9.118;2023-06-26T02:27:56;18.10;82.50
1155;DHT22;566;48.414;9.118;2023-06-26T02:30:21;18.10;82.60
1155;DHT22;566;48.414;9.118;2023-06-26T02:32:47;18.00;83.30
1155;DHT22;566;48.414;9.118;2023-06-26T02:35:13;18.00;83.70
1155;DHT22;566;48.414;9.118;2023-06-26T02:37:38;17.90;83.50
1155;DHT22;566;48.414;9.118;2023-06-26T02:40:04;17.90;84.00
1155;DHT22;566;48.414;9.118;2023-06-26T02:42:31;17.80;84.10
1155;DHT22;566;48.414;9.118;2023-06-26T02:44:57;17.80;84.10
1155;DHT22;566;48.414;9.118;2023-06-26T02:47:22;17.80;84.30
1155;DHT22;566;48.414;9.118;2023-06-26T02:49:48;17.70;84.90
1155;DHT22;566;48.414;9.118;2023-06-26T02:52:13;17.60;85.70
1155;DHT22;566;48.414;9.118;2023-06-26T02:54:39;17.60;85.80
1155;DHT22;566;48.414;9.118;2023-06-26T02:57:04;17.60;86.30
1155;DHT22;566;48.414;9.118;2023-06-26T02:59:30;17.40;86.70
1155;DHT22;566;48.414;9.118;2023-06-26T03:01:56;17.30;87.10
1155;DHT22;566;48.414;9.118;2023-06-26T03:04:21;17.20;87.70
1155;DHT22;566;48.414;9.118;2023-06-26T03:06:47;17.10;87.90
1155;DHT22;566;48.414;9.118;2023-06-26T03:09:13;17.00;88.20
1155;DHT22;566;48.414;9.118;2023-06-26T03:11:38;16.90;88.70
1155;DHT22;566;48.414;9.118;2023-06-26T03:14:04;16.90;88.90
1155;DHT22;566;48.414;9.118;2023-06-26T03:16:29;16.90;89.10
1155;DHT22;566;48.414;9.118;2023-06-26T03:18:55;16.80;89.40
1155;DHT22;566;48.414;9.118;2023-06-26T03:21:20;16.70;89.70
1155;DHT22;566;48.414;9.118;2023-06-26T03:23:46;16.70;90.00
1155;DHT22;566;48.414;9.118;2023-06-26T03:26:12;16.70;90.10
1155;DHT22;566;48.414;9.118;2023-06-26T03:28:40;16.80;90.00
1155;DHT22;566;48.414;9.118;2023-06-26T03:31:05;16.80;90.10
1155;DHT22;566;48.414;9.118;2023-06-26T03:33:31;16.70;90.50
1155;DHT22;566;48.414;9.118;2023-06-26T03:35:56;16.50;90.80
1155;DHT22;566;48.414;9.118;2023-06-26T03:38:22;16.40;91.40
1155;DHT22;566;48.414;9.118;2023-06-26T03:40:49;16.30;91.80
1155;DHT22;566;48.414;9.118;2023-06-26T03:43:15;16.20;92.40
1155;DHT22;566;48.414;9.118;2023-06-26T03:45:43;16.30;92.70
1155;DHT22;566;48.414;9.118;2023-06-26T03:48:08;16.20;92.70
1155;DHT22;566;48.414;9.118;2023-06-26T03:50:34;16.30;92.40
1155;DHT22;566;48.414;9.118;2023-06-26T03:53:02;16.40;92.60
1155;DHT22;566;48.414;9.118;2023-06-26T03:55:28;16.40;92.70
1155;DHT22;566;48.414;9.118;2023-06-26T03:57:53;16.40;92.40
1155;DHT22;566;48.414;9.118;2023-06-26T04:00:19;16.30;92.50
1155;DHT22;566;48.414;9.118;2023-06-26T04:02:44;16.40;92.80
1155;DHT22;566;48.414;9.118;2023-06-26T04:05:10;16.40;92.90
1155;DHT22;566;48.414;9.118;2023-06-26T04:07:37;16.40;93.20
1155;DHT22;566;48.414;9.118;2023-06-26T04:10:03;16.40;93.20
1155;DHT22;566;48.414;9.118;2023-06-26T04:12:28;16.30;93.50
1155;DHT22;566;48.414;9.118;2023-06-26T04:14:54;16.40;93.30
1155;DHT22;566;48.414;9.118;2023-06-26T04:17:22;16.60;93.00
1155;DHT22;566;48.414;9.118;2023-06-26T04:19:48;16.80;92.50
1155;DHT22;566;48.414;9.118;2023-06-26T04:22:13;16.70;92.60
1155;DHT22;566;48.414;9.118;2023-06-26T04:24:39;16.80;92.10
1155;DHT22;566;48.414;9.118;2023-06-26T04:27:05;16.90;92.00
1155;DHT22;566;48.414;9.118;2023-06-26T04:29:31;16.90;92.30
1155;DHT22;566;48.414;9.118;2023-06-26T04:31:56;16.90;92.30
1155;DHT22;566;48.414;9.118;2023-06-26T04:34:26;17.10;91.90
1155;DHT22;566;48.414;9.118;2023-06-26T04:36:54;17.10;92.00
1155;DHT22;566;48.414;9.118;2023-06-26T04:39:20;17.30;91.40
1155;DHT22;566;48.414;9.118;2023-06-26T04:41:46;17.30;91.50
1155;DHT22;566;48.414;9.118;2023-06-26T04:44:12;17.50;91.20
1155;DHT22;566;48.414;9.118;2023-06-26T04:46:38;17.50;91.40
1155;DHT22;566;48.414;9.118;2023-06-26T04:49:10;17.40;92.00
1155;DHT22;566;48.414;9.118;2023-06-26T04:51:36;17.40;92.10
1155;DHT22;566;48.414;9.118;2023-06-26T04:54:09;17.40;92.20
1155;DHT22;566;48.414;9.118;2023-06-26T04:56:38;17.30;92.40
1155;DHT22;566;48.414;9.118;2023-06-26T04:59:05;17.40;92.40
1155;DHT22;566;48.414;9.118;2023-06-26T05:01:31;17.50;91.90
1155;DHT22;566;48.414;9.118;2023-06-26T05:03:58;17.60;92.20
1155;DHT22;566;48.414;9.118;2023-06-26T05:06:23;17.70;92.40
1155;DHT22;566;48.414;9.118;2023-06-26T05:08:49;17.80;92.00
1155;DHT22;566;48.414;9.118;2023-06-26T05:11:15;18.00;91.50
1155;DHT22;566;48.414;9.118;2023-06-26T05:13:41;18.10;91.00
1155;DHT22;566;48.414;9.118;2023-06-26T05:16:07;18.30;91.10
1155;DHT22;566;48.414;9.118;2023-06-26T05:18:34;18.50;91.10
1155;DHT22;566;48.414;9.118;2023-06-26T05:21:03;18.60;89.20
1155;DHT22;566;48.414;9.118;2023-06-26T05:23:33;18.80;90.70
1155;DHT22;566;48.414;9.118;2023-06-26T05:26:02;18.80;90.30
1155;DHT22;566;48.414;9.118;2023-06-26T05:28:28;19.10;88.30
1155;DHT22;566;48.414;9.118;2023-06-26T05:30:57;19.30;88.40
1155;DHT22;566;48.414;9.118;2023-06-26T05:33:24;19.50;87.10
1155;DHT22;566;48.414;9.118;2023-06-26T05:35:52;19.70;88.50
1155;DHT22;566;48.414;9.118;2023-06-26T05:38:19;19.80;88.60
1155;DHT22;566;48.414;9.118;2023-06-26T05:40:44;19.80;89.00
1155;DHT22;566;48.414;9.118;2023-06-26T05:43:10;19.90;87.80
1155;DHT22;566;48.414;9.118;2023-06-26T05:45:36;20.20;86.30
1155;DHT22;566;48.414;9.118;2023-06-26T05:48:02;20.40;86.90
1155;DHT22;566;48.414;9.118;2023-06-26T05:50:28;20.60;86.60
1155;DHT22;566;48.414;9.118;2023-06-26T05:52:54;20.80;86.80
1155;DHT22;566;48.414;9.118;2023-06-26T05:55:20;21.10;85.60
1155;DHT22;566;48.414;9.118;2023-06-26T05:57:46;21.30;83.00
1155;DHT22;566;48.414;9.118;2023-06-26T06:00:16;21.50;82.50
1155;DHT22;566;48.414;9.118;2023-06-26T06:02:42;21.70;82.50
1155;DHT22;566;48.414;9.118;2023-06-26T06:05:08;21.90;80.60
1155;DHT22;566;48.414;9.118;2023-06-26T06:07:34;22.10;79.00
1155;DHT22;566;48.414;9.118;2023-06-26T06:10:00;22.30;76.10
1155;DHT22;566;48.414;9.118;2023-06-26T06:12:29;22.60;75.70
1155;DHT22;566;48.414;9.118;2023-06-26T06:14:55;22.90;74.30
1155;DHT22;566;48.414;9.118;2023-06-26T06:17:21;23.10;73.10
1155;DHT22;566;48.414;9.118;2023-06-26T06:19:47;23.40;73.20
1155;DHT22;566;48.414;9.118;2023-06-26T06:22:13;23.50;73.30
1155;DHT22;566;48.414;9.118;2023-06-26T06:24:39;23.70;71.80
1155;DHT22;566;48.414;9.118;2023-06-26T06:27:05;23.80;71.70
1155;DHT22;566;48.414;9.118;2023-06-26T06:29:30;23.80;71.70
1155;DHT22;566;48.414;9.118;2023-06-26T06:31:56;23.90;70.80
1155;DHT22;566;48.414;9.118;2023-06-26T06:34:22;24.10;71.20
1155;DHT22;566;48.414;9.118;2023-06-26T06:36:48;24.20;70.50
1155;DHT22;566;48.414;9.118;2023-06-26T06:39:13;24.30;70.00
1155;DHT22;566;48.414;9.118;2023-06-26T06:41:39;24.40;70.20
1155;DHT22;566;48.414;9.118;2023-06-26T06:44:05;24.40;69.70
1155;DHT22;566;48.414;9.118;2023-06-26T06:46:33;24.50;70.30
1155;DHT22;566;48.414;9.118;2023-06-26T06:49:02;24.70;69.50
1155;DHT22;566;48.414;9.118;2023-06-26T06:51:29;24.70;68.50
1155;DHT22;566;48.414;9.118;2023-06-26T06:53:54;24.80;68.60
1155;DHT22;566;48.414;9.118;2023-06-26T06:56:20;24.90;68.80
1155;DHT22;566;48.414;9.118;2023-06-26T06:58:46;25.00;68.20
1155;DHT22;566;48.414;9.118;2023-06-26T07:01:12;25.10;67.80
1155;DHT22;566;48.414;9.118;2023-06-26T07:03:39;25.10;68.20
1155;DHT22;566;48.414;9.118;2023-06-26T07:06:04;25.10;68.20
1155;DHT22;566;48.414;9.118;2023-06-26T07:08:30;25.20;69.10
1155;DHT22;566;48.414;9.118;2023-06-26T07:10:56;25.30;68.30
1155;DHT22;566;48.414;9.118;2023-06-26T07:13:24;25.40;68.80
1155;DHT22;566;48.414;9.118;2023-06-26T07:15:50;25.50;66.80
1155;DHT22;566;48.414;9.118;2023-06-26T07:18:16;25.60;67.70
1155;DHT22;566;48.414;9.118;2023-06-26T07:20:44;25.50;67.10
1155;DHT22;566;48.414;9.118;2023-06-26T07:23:10;25.60;67.10
1155;DHT22;566;48.414;9.118;2023-06-26T07:25:36;25.90;67.30
1155;DHT22;566;48.414;9.118;2023-06-26T07:28:12;26.50;65.40
1155;DHT22;566;48.414;9.118;2023-06-26T07:30:38;26.90;64.20
1155;DHT22;566;48.414;9.118;2023-06-26T07:33:04;27.10;63.80
1155;DHT22;566;48.414;9.118;2023-06-26T07:35:29;27.30;64.00
1155;DHT22;566;48.414;9.118;2023-06-26T07:37:55;27.50;64.00
1155;DHT22;566;48.414;9.118;2023-06-26T07:40:21;27.70;63.60
1155;DHT22;566;48.414;9.118;2023-06-26T07:42:46;27.90;63.30
1155;DHT22;566;48.414;9.118;2023-06-26T07:45:12;27.80;63.10
1155;DHT22;566;48.414;9.118;2023-06-26T07:47:39;28.30;62.70
1155;DHT22;566;48.414;9.118;2023-06-26T07:50:05;28.30;62.00
1155;DHT22;566;48.414;9.118;2023-06-26T07:52:30;28.40;62.20
1155;DHT22;566;48.414;9.118;2023-06-26T07:54:57;28.50;61.20
1155;DHT22;566;48.414;9.118;2023-06-26T07:57:22;28.60;62.10
1155;DHT22;566;48.414;9.118;2023-06-26T07:59:48;29.00;60.50
1155;DHT22;566;48.414;9.118;2023-06-26T08:02:14;29.20;60.90
1155;DHT22;566;48.414;9.118;2023-06-26T08:04:39;29.20;60.10
1155;DHT22;566;48.414;9.118;2023-06-26T08:07:05;29.30;60.00
1155;DHT22;566;48.414;9.118;2023-06-26T08:09:31;29.50;60.10
1155;DHT22;566;48.414;9.118;2023-06-26T08:11:58;29.70;58.70
1155;DHT22;566;48.414;9.118;2023-06-26T08:14:24;29.50;58.70
1155;DHT22;566;48.414;9.118;2023-06-26T08:16:50;29.30;59.80
1155;DHT22;566;48.414;9.118;2023-06-26T08:19:16;29.30;59.50
1155;DHT22;566;48.414;9.118;2023-06-26T08:21:43;29.50;59.40
1155;DHT22;566;48.414;9.118;2023-06-26T08:24:10;29.70;59.80
1155;DHT22;566;48.414;9.118;2023-06-26T08:26:36;29.90;58.40
1155;DHT22;566;48.414;9.118;2023-06-26T08:29:02;29.60;59.00
1155;DHT22;566;48.414;9.118;2023-06-26T08:31:37;29.70;59.40
1155;DHT22;566;48.414;9.118;2023-06-26T08:34:04;29.60;58.50
1155;DHT22;566;48.414;9.118;2023-06-26T08:36:30;29.90;59.00
1155;DHT22;566;48.414;9.118;2023-06-26T08:38:56;30.60;58.10
1155;DHT22;566;48.414;9.118;2023-06-26T08:41:22;30.60;57.80
1155;DHT22;566;48.414;9.118;2023-06-26T08:43:47;30.60;57.20
1155;DHT22;566;48.414;9.118;2023-06-26T08:46:14;30.80;57.00
1155;DHT22;566;48.414;9.118;2023-06-26T08:48:42;30.60;57.00
1155;DHT22;566;48.414;9.118;2023-06-26T08:51:12;30.50;57.60
1155;DHT22;566;48.414;9.118;2023-06-26T08:54:00;30.40;57.60
1155;DHT22;566;48.414;9.118;2023-06-26T08:56:32;30.90;57.10
1155;DHT22;566;48.414;9.118;2023-06-26T08:58:58;31.00;56.00
1155;DHT22;566;48.414;9.118;2023-06-26T09:01:24;31.10;56.70
1155;DHT22;566;48.414;9.118;2023-06-26T09:03:51;31.40;56.70
1155;DHT22;566;48.414;9.118;2023-06-26T09:06:17;31.80;55.80
1155;DHT22;566;48.414;9.118;2023-06-26T09:08:44;31.20;56.10
1155;DHT22;566;48.414;9.118;2023-06-26T09:11:09;31.50;56.90
1155;DHT22;566;48.414;9.118;2023-06-26T09:13:35;32.20;55.10
1155;DHT22;566;48.414;9.118;2023-06-26T09:16:06;32.00;55.30
1155;DHT22;566;48.414;9.118;2023-06-26T09:18:33;32.10;55.30
1155;DHT22;566;48.414;9.118;2023-06-26T09:20:59;32.20;54.40
1155;DHT22;566;48.414;9.118;2023-06-26T09:23:25;32.30;55.00
1155;DHT22;566;48.414;9.118;2023-06-26T09:25:51;31.50;55.70
1155;DHT22;566;48.414;9.118;2023-06-26T09:28:17;31.50;55.00
1155;DHT22;566;48.414;9.118;2023-06-26T09:30:44;31.30;55.20
1155;DHT22;566;48.414;9.118;2023-06-26T09:33:16;31.70;55.90
1155;DHT22;566;48.414;9.118;2023-06-26T09:35:46;31.90;54.20
1155;DHT22;566;48.414;9.118;2023-06-26T09:38:15;32.40;54.70
1155;DHT22;566;48.414;9.118;2023-06-26T09:40:41;32.70;54.10
1155;DHT22;566;48.414;9.118;2023-06-26T09:43:09;32.70;53.10
1155;DHT22;566;48.414;9.118;2023-06-26T09:45:35;32.80;53.70
1155;DHT22;566;48.414;9.118;2023-06-26T09:48:09;33.00;52.20
1155;DHT22;566;48.414;9.118;2023-06-26T09:50:37;32.80;53.10
1155;DHT22;566;48.414;9.118;2023-06-26T09:53:12;31.90;54.10
1155;DHT22;566;48.414;9.118;2023-06-26T09:55:47;31.20;55.90
1155;DHT22;566;48.414;9.118;2023-06-26T09:58:13;32.20;53.60
1155;DHT22;566;48.414;9.118;2023-06-26T10:00:43;32.80;51.90
1155;DHT22;566;48.414;9.118;2023-06-26T10:03:09;33.10;52.10
1155;DHT22;566;48.414;9.118;2023-06-26T10:05:35;33.00;52.30
1155;DHT22;566;48.414;9.118;2023-06-26T10:08:02;33.40;51.40
1155;DHT22;566;48.414;9.118;2023-06-26T10:10:28;33.50;52.40
1155;DHT22;566;48.414;9.118;2023-06-26T10:13:09;32.60;53.70
1155;DHT22;566;48.414;9.118;2023-06-26T10:15:37;31.80;53.50
1155;DHT22;566;48.414;9.118;2023-06-26T10:18:03;32.00;54.50
1155;DHT22;566;48.414;9.118;2023-06-26T10:20:29;32.30;54.00
1155;DHT22;566;48.414;9.118;2023-06-26T10:22:57;32.60;53.40
1155;DHT22;566;48.414;9.118;2023-06-26T10:25:26;33.00;53.90
1155;DHT22;566;48.414;9.118;2023-06-26T10:27:57;33.90;51.30
1155;DHT22;566;48.414;9.118;2023-06-26T10:30:28;33.90;50.30
1155;DHT22;566;48.414;9.118;2023-06-26T10:32:54;33.40;52.00
1155;DHT22;566;48.414;9.118;2023-06-26T10:35:21;33.60;51.60
1155;DHT22;566;48.414;9.118;2023-06-26T10:37:48;33.00;51.30
1155;DHT22;566;48.414;9.118;2023-06-26T10:40:25;31.70;52.90
1155;DHT22;566;48.414;9.118;2023-06-26T10:42:51;31.60;53.40
1155;DHT22;566;48.414;9.118;2023-06-26T10:45:30;31.70;53.20
1155;DHT22;566;48.414;9.118;2023-06-26T10:47:57;32.00;52.60
1155;DHT22;566;48.414;9.118;2023-06-26T10:50:27;32.20;53.80
1155;DHT22;566;48.414;9.118;2023-06-26T10:53:13;31.90;53.40
1155;DHT22;566;48.414;9.118;2023-06-26T10:55:56;31.60;53.70
1155;DHT22;566;48.414;9.118;2023-06-26T11:03:40;31.40;54.60
1155;DHT22;566;48.414;9.118;2023-06-26T11:06:14;31.40;54.60
1155;DHT22;566;48.414;9.118;2023-06-26T11:08:47;31.50;54.80
1155;DHT22;566;48.414;9.118;2023-06-26T11:11:13;32.00;55.20
1155;DHT22;566;48.414;9.118;2023-06-26T11:13:40;31.80;55.90
1155;DHT22;566;48.414;9.118;2023-06-26T11:16:05;31.20;57.70
1155;DHT22;566;48.414;9.118;2023-06-26T11:18:31;31.70;57.60
1155;DHT22;566;48.414;9.118;2023-06-26T11:21:15;31.80;55.90
1155;DHT22;566;48.414;9.118;2023-06-26T11:23:41;31.50;55.40
1155;DHT22;566;48.414;9.118;2023-06-26T11:26:18;30.90;57.40
1155;DHT22;566;48.414;9.118;2023-06-26T11:28:48;30.90;56.20
1155;DHT22;566;48.414;9.118;2023-06-26T11:31:44;30.90;57.40
1155;DHT22;566;48.414;9.118;2023-06-26T11:34:11;31.50;56.00
1155;DHT22;566;48.414;9.118;2023-06-26T11:36:40;31.40;56.00
1155;DHT22;566;48.414;9.118;2023-06-26T11:39:07;32.00;55.30
1155;DHT22;566;48.414;9.118;2023-06-26T11:41:36;32.20;56.10
1155;DHT22;566;48.414;9.118;2023-06-26T11:44:03;32.20;55.90
1155;DHT22;566;48.414;9.118;2023-06-26T11:46:30;32.30;56.30
1155;DHT22;566;48.414;9.118;2023-06-26T11:48:56;32.10;57.20
1155;DHT22;566;48.414;9.118;2023-06-26T11:51:21;31.20;58.30
1155;DHT22;566;48.414;9.118;2023-06-26T11:53:48;31.50;59.30
1155;DHT22;566;48.414;9.118;2023-06-26T11:56:15;32.30;59.10
1155;DHT22;566;48.414;9.118;2023-06-26T12:01:34;31.30;59.10
1155;DHT22;566;48.414;9.118;2023-06-26T12:04:02;31.00;59.60
1155;DHT22;566;48.414;9.118;2023-06-26T12:06:36;30.50;60.20
1155;DHT22;566;48.414;9.118;2023-06-26T12:09:04;29.80;60.40
1155;DHT22;566;48.414;9.118;2023-06-26T12:11:31;29.50;61.40
1155;DHT22;566;48.414;9.118;2023-06-26T12:13:58;29.70;61.10
1155;DHT22;566;48.414;9.118;2023-06-26T12:16:24;30.60;58.90
1155;DHT22;566;48.414;9.118;2023-06-26T12:18:50;31.00;58.10
1155;DHT22;566;48.414;9.118;2023-06-26T12:21:49;31.30;56.70
1155;DHT22;566;48.414;9.118;2023-06-26T12:24:19;32.00;57.90
1155;DHT22;566;48.414;9.118;2023-06-26T12:26:49;32.50;55.60
1155;DHT22;566;48.414;9.118;2023-06-26T12:29:17;32.00;56.40
1155;DHT22;566;48.414;9.118;2023-06-26T12:31:50;32.50;56.70
1155;DHT22;566;48.414;9.118;2023-06-26T12:34:19;31.60;56.90
1155;DHT22;566;48.414;9.118;2023-06-26T12:36:51;31.00;59.20
1155;DHT22;566;48.414;9.118;2023-06-26T12:39:21;30.60;60.90
1155;DHT22;566;48.414;9.118;2023-06-26T12:41:53;30.20;61.70
1155;DHT22;566;48.414;9.118;2023-06-26T12:44:26;30.90;61.50
1155;DHT22;566;48.414;9.118;2023-06-26T12:46:56;30.80;59.70
1155;DHT22;566;48.414;9.118;2023-06-26T12:49:31;29.80;62.30
1155;DHT22;566;48.414;9.118;2023-06-26T12:52:03;29.70;63.40
1155;DHT22;566;48.414;9.118;2023-06-26T12:54:29;30.90;61.10
1155;DHT22;566;48.414;9.118;2023-06-26T12:56:55;31.00;60.40
1155;DHT22;566;48.414;9.118;2023-06-26T12:59:21;30.40;61.10
1155;DHT22;566;48.414;9.118;2023-06-26T13:01:47;30.30;62.90
1155;DHT22;566;48.414;9.118;2023-06-26T13:04:13;31.10;61.50
1155;DHT22;566;48.414;9.118;2023-06-26T13:06:38;32.10;59.70
1155;DHT22;566;48.414;9.118;2023-06-26T13:09:04;32.40;58.10
1155;DHT22;566;48.414;9.118;2023-06-26T13:11:30;32.00;58.60
1155;DHT22;566;48.414;9.118;2023-06-26T13:13:56;31.80;59.80
1155;DHT22;566;48.414;9.118;2023-06-26T13:16:22;32.30;59.30
1155;DHT22;566;48.414;9.118;2023-06-26T13:18:48;31.90;59.30
1155;DHT22;566;48.414;9.118;2023-06-26T13:21:14;31.90;58.60
1155;DHT22;566;48.414;9.118;2023-06-26T13:23:40;31.10;60.50
1155;DHT22;566;48.414;9.118;2023-06-26T13:26:06;30.40;61.00
1155;DHT22;566;48.414;9.118;2023-06-26T13:28:32;30.60;61.10
1155;DHT22;566;48.414;9.118;2023-06-26T13:30:57;31.40;60.20
1155;DHT22;566;48.414;9.118;2023-06-26T13:33:23;32.20;59.30
1155;DHT22;566;48.414;9.118;2023-06-26T13:35:51;32.60;58.90
1155;DHT22;566;48.414;9.118;2023-06-26T13:38:19;32.40;59.00
1155;DHT22;566;48.414;9.118;2023-06-26T13:40:44;31.80;60.00
1155;DHT22;566;48.414;9.118;2023-06-26T13:43:10;31.90;60.20
1155;DHT22;566;48.414;9.118;2023-06-26T13:45:35;32.60;58.60
1155;DHT22;566;48.414;9.118;2023-06-26T13:48:01;33.00;58.20
1155;DHT22;566;48.414;9.118;2023-06-26T13:50:26;32.70;58.80
1155;DHT22;566;48.414;9.118;2023-06-26T13:52:52;32.20;59.30
1155;DHT22;566;48.414;9.118;2023-06-26T13:55:17;31.50;61.60
1155;DHT22;566;48.414;9.118;2023-06-26T13:57:43;32.20;60.30
1155;DHT22;566;48.414;9.118;2023-06-26T14:00:09;32.30;59.10
1155;DHT22;566;48.414;9.118;2023-06-26T14:02:37;32.00;59.40
1155;DHT22;566;48.414;9.118;2023-06-26T14:05:02;31.90;59.80
1155;DHT22;566;48.414;9.118;2023-06-26T14:07:29;31.30;60.10
1155;DHT22;566;48.414;9.118;2023-06-26T14:09:54;30.90;62.40
1155;DHT22;566;48.414;9.118;2023-06-26T14:12:20;30.90;61.30
1155;DHT22;566;48.414;9.118;2023-06-26T14:14:45;31.00;61.90
1155;DHT22;566;48.414;9.118;2023-06-26T14:17:11;30.10;62.90
1155;DHT22;566;48.414;9.118;2023-06-26T14:19:41;29.20;64.70
1155;DHT22;566;48.414;9.118;2023-06-26T14:22:07;29.80;64.10
1155;DHT22;566;48.414;9.118;2023-06-26T14:24:32;30.10;63.30
1155;DHT22;566;48.414;9.118;2023-06-26T14:26:58;30.50;62.10
1155;DHT22;566;48.414;9.118;2023-06-26T14:29:23;30.10;62.80
1155;DHT22;566;48.414;9.118;2023-06-26T14:31:49;29.90;63.40
1155;DHT22;566;48.414;9.118;2023-06-26T14:34:15;30.80;61.90
1155;DHT22;566;48.414;9.118;2023-06-26T14:36:40;30.90;61.80
1155;DHT22;566;48.414;9.118;2023-06-26T14:39:06;30.70;61.50
1155;DHT22;566;48.414;9.118;2023-06-26T14:41:31;30.50;61.80
1155;DHT22;566;48.414;9.118;2023-06-26T14:43:57;31.00;60.80
1155;DHT22;566;48.414;9.118;2023-06-26T14:46:22;31.80;60.30
1155;DHT22;566;48.414;9.118;2023-06-26T14:48:48;32.00;59.80
1155;DHT22;566;48.414;9.118;2023-06-26T14:51:14;31.20;60.10
1155;DHT22;566;48.414;9.118;2023-06-26T14:53:39;30.20;62.30
1155;DHT22;566;48.414;9.118;2023-06-26T14:56:05;31.00;60.90
1155;DHT22;566;48.414;9.118;2023-06-26T14:58:31;31.50;59.60
1155;DHT22;566;48.414;9.118;2023-06-26T15:00:56;30.70;60.80
1155;DHT22;566;48.414;9.118;2023-06-26T15:03:22;30.40;61.10
1155;DHT22;566;48.414;9.118;2023-06-26T15:05:48;31.20;60.70
1155;DHT22;566;48.414;9.118;2023-06-26T15:08:14;31.50;59.70
1155;DHT22;566;48.414;9.118;2023-06-26T15:10:39;31.40;59.10
1155;DHT22;566;48.414;9.118;2023-06-26T15:13:05;31.30;59.50
1155;DHT22;566;48.414;9.118;2023-06-26T15:15:31;31.00;59.80
1155;DHT22;566;48.414;9.118;2023-06-26T15:17:57;30.80;60.10
1155;DHT22;566;48.414;9.118;2023-06-26T15:20:22;31.00;60.00
1155;DHT22;566;48.414;9.118;2023-06-26T15:22:48;30.60;60.20
1155;DHT22;566;48.414;9.118;2023-06-26T15:25:16;29.80;61.20
1155;DHT22;566;48.414;9.118;2023-06-26T15:27:42;30.80;59.80
1155;DHT22;566;48.414;9.118;2023-06-26T15:30:08;31.20;59.50
1155;DHT22;566;48.414;9.118;2023-06-26T15:32:36;30.80;59.10
1155;DHT22;566;48.414;9.118;2023-06-26T15:35:02;31.00;59.30
1155;DHT22;566;48.414;9.118;2023-06-26T15:37:31;30.40;59.70
1155;DHT22;566;48.414;9.118;2023-06-26T15:39:56;29.10;62.10
1155;DHT22;566;48.414;9.118;2023-06-26T15:42:26;29.50;61.50
1155;DHT22;566;48.414;9.118;2023-06-26T15:44:54;30.00;61.50
1155;DHT22;566;48.414;9.118;2023-06-26T15:47:19;30.80;60.10
1155;DHT22;566;48.414;9.118;2023-06-26T15:49:45;31.40;58.80
1155;DHT22;566;48.414;9.118;2023-06-26T15:52:10;31.30;58.20
1155;DHT22;566;48.414;9.118;2023-06-26T15:54:36;30.80;59.30
1155;DHT22;566;48.414;9.118;2023-06-26T15:57:02;30.80;59.70
1155;DHT22;566;48.414;9.118;2023-06-26T15:59:28;30.80;59.60
1155;DHT22;566;48.414;9.118;2023-06-26T16:01:53;30.40;59.90
1155;DHT22;566;48.414;9.118;2023-06-26T16:04:20;30.50;59.70
1155;DHT22;566;48.414;9.118;2023-06-26T16:06:47;30.70;59.80
1155;DHT22;566;48.414;9.118;2023-06-26T16:09:13;30.20;60.10
1155;DHT22;566;48.414;9.118;2023-06-26T16:11:39;29.50;61.70
1155;DHT22;566;48.414;9.118;2023-06-26T16:14:05;29.90;61.80
1155;DHT22;566;48.414;9.118;2023-06-26T16:16:31;30.30;60.60
1155;DHT22;566;48.414;9.118;2023-06-26T16:18:56;29.80;61.20
1155;DHT22;566;48.414;9.118;2023-06-26T16:21:22;29.30;61.60
1155;DHT22;566;48.414;9.118;2023-06-26T16:23:47;29.00;62.70
1155;DHT22;566;48.414;9.118;2023-06-26T16:26:13;28.70;63.00
1155;DHT22;566;48.414;9.118;2023-06-26T16:28:38;28.80;63.10